Salt Lake City, Utah
Traffic Map
Current Weather Conditions
Salt Lake City, Utah
Few Clouds
Few Clouds
55°
Feels Like: 55°
Wind Chill: 55° Ceiling: Unl
Heat Index: 55° Visibility: 10mi
Dew Point: 34° Wind: 14mph
Humidity: 45% Direction: 190° (S)
Pressure: 30.02in Gusts: 0mph
Raw Report DataKSLC 250354Z 19012KT 10SM FEW150 13/01 A3002 RMK AO2 SLP147 T01280011
Traffic Incident Summary
Active as of:
Severity:
Category:
InformationThere was an issue retrieving the traffic information for this location. Please try a different location or try again shortly.
Advertisements
Track Severe Weather on mobile